Time;durP1;ratioP1;P1;durP2;ratioP2;P2;SDS_P1;SDS_P2;PMS_P1;PMS_P2;Temp;Humidity;BMP_temperature;BMP_pressure;BME280_temperature;BME280_humidity;BME280_pressure;Samples;Min_cycle;Max_cycle;Signal;HPM_P1;HPM_P2
2022/06/29 00:01:42;;;;;;;7.80;3.40;;;;;;;17.94;100.00;101590.41;5034846;28;20484;-72
2022/06/29 00:04:08;;;;;;;7.32;3.10;;;;;;;17.89;100.00;101589.47;5036052;28;20021;-72
2022/06/29 00:06:33;;;;;;;5.82;2.53;;;;;;;17.79;100.00;101586.84;5036512;28;20029;-73
2022/06/29 00:08:58;;;;;;;10.95;3.60;;;;;;;17.72;100.00;101581.53;5036636;28;20492;-72
2022/06/29 00:11:24;;;;;;;7.63;2.88;;;;;;;17.64;100.00;101581.53;5035281;28;20113;-72
2022/06/29 00:13:49;;;;;;;11.73;3.20;;;;;;;17.63;100.00;101574.44;5036802;28;20495;-72
2022/06/29 00:16:14;;;;;;;6.57;2.60;;;;;;;17.68;100.00;101568.22;5034386;28;20032;-72
2022/06/29 00:18:40;;;;;;;8.60;2.53;;;;;;;17.66;100.00;101567.34;5034485;28;20128;-72
2022/06/29 00:21:05;;;;;;;9.18;2.22;;;;;;;17.74;100.00;101569.97;5035749;28;20049;-73
2022/06/29 00:23:30;;;;;;;4.97;2.30;;;;;;;17.79;100.00;101562.88;5034987;28;20037;-73
2022/06/29 00:25:56;;;;;;;8.23;2.05;;;;;;;17.85;100.00;101564.63;5034232;28;20028;-72
2022/06/29 00:28:23;;;;;;;5.97;2.15;;;;;;;17.83;100.00;101566.44;5034922;28;20469;-72
2022/06/29 00:30:49;;;;;;;4.68;2.00;;;;;;;17.82;100.00;101562.00;5034595;28;20029;-71
2022/06/29 00:33:14;;;;;;;5.18;2.25;;;;;;;17.77;100.00;101567.34;5035057;28;20033;-72
2022/06/29 00:35:39;;;;;;;8.45;2.50;;;;;;;17.67;100.00;101563.78;5036118;28;20029;-72
2022/06/29 00:38:05;;;;;;;6.45;2.58;;;;;;;17.63;100.00;101559.34;5035766;28;20047;-72
2022/06/29 00:40:30;;;;;;;5.60;2.13;;;;;;;17.63;100.00;101558.47;5035472;28;20129;-72
2022/06/29 00:42:55;;;;;;;3.97;2.15;;;;;;;17.62;100.00;101554.94;5034657;28;20025;-72
2022/06/29 00:45:21;;;;;;;4.32;2.25;;;;;;;17.65;100.00;101554.03;5033912;28;20022;-72
2022/06/29 00:47:46;;;;;;;5.15;1.83;;;;;;;17.62;100.00;101551.38;5036187;28;20075;-72
2022/06/29 00:50:13;;;;;;;7.60;3.17;;;;;;;17.60;100.00;101550.50;5034053;28;20075;-72
2022/06/29 00:52:41;;;;;;;6.40;2.30;;;;;;;17.58;100.00;101550.50;5035709;28;20045;-72
2022/06/29 00:55:11;;;;;;;4.47;2.30;;;;;;;17.56;100.00;101552.25;5034978;28;20034;-71
2022/06/29 00:57:45;;;;;;;6.03;2.30;;;;;;;17.49;100.00;101547.84;5033402;28;20036;-72
2022/06/29 01:00:12;;;;;;;7.47;2.25;;;;;;;17.50;100.00;101539.84;5034867;28;20036;-71
2022/06/29 01:02:37;;;;;;;3.17;2.00;;;;;;;17.41;100.00;101537.19;5035235;28;20101;-72
2022/06/29 01:05:05;;;;;;;4.93;2.15;;;;;;;17.32;100.00;101542.53;5034501;28;20049;-72
2022/06/29 01:07:32;;;;;;;8.15;2.40;;;;;;;17.30;100.00;101534.53;5034529;28;20025;-72
2022/06/29 01:09:58;;;;;;;6.43;2.50;;;;;;;17.31;100.00;101525.69;5034336;28;20107;-72
2022/06/29 01:12:24;;;;;;;7.32;2.35;;;;;;;17.33;100.00;101526.56;5034915;28;20430;-72
2022/06/29 01:14:51;;;;;;;6.60;2.20;;;;;;;17.40;100.00;101530.09;5034530;28;20033;-73
2022/06/29 01:17:17;;;;;;;6.43;2.45;;;;;;;17.38;100.00;101529.22;5033667;28;20036;-72
2022/06/29 01:19:43;;;;;;;3.65;2.00;;;;;;;17.38;100.00;101530.97;5034308;28;20022;-72
2022/06/29 01:22:12;;;;;;;6.65;2.65;;;;;;;17.31;100.00;101527.47;5035370;28;20029;-71
2022/06/29 01:24:39;;;;;;;4.10;2.50;;;;;;;17.30;100.00;101529.22;5034104;28;20029;-72
2022/06/29 01:27:05;;;;;;;7.85;2.60;;;;;;;17.28;100.00;101530.09;5030497;28;20144;-72
2022/06/29 01:29:31;;;;;;;4.10;2.08;;;;;;;17.28;100.00;101535.44;5034686;28;20112;-72
2022/06/29 01:31:58;;;;;;;7.22;3.13;;;;;;;17.21;100.00;101538.97;5034820;28;20435;-72
2022/06/29 01:34:28;;;;;;;4.78;2.42;;;;;;;17.17;100.00;101530.09;5032370;28;20031;-71
2022/06/29 01:36:53;;;;;;;7.57;2.63;;;;;;;17.18;100.00;101531.88;5034893;28;20473;-72
2022/06/29 01:39:19;;;;;;;3.72;2.53;;;;;;;17.22;100.00;101531.00;5034994;28;20017;-72
2022/06/29 01:41:44;;;;;;;4.72;2.63;;;;;;;17.27;100.00;101529.22;5033357;28;20029;-72
2022/06/29 01:44:10;;;;;;;8.23;2.60;;;;;;;17.29;100.00;101538.09;5034240;28;20702;-72
2022/06/29 01:46:36;;;;;;;5.90;2.53;;;;;;;17.27;100.00;101533.66;5033877;28;20029;-73
2022/06/29 01:49:01;;;;;;;11.63;3.28;;;;;;;17.28;100.00;101536.34;5034671;28;20495;-72
2022/06/29 01:51:27;;;;;;;5.60;2.83;;;;;;;17.24;100.00;101525.69;5033709;28;20083;-73
2022/06/29 01:53:52;;;;;;;3.83;2.10;;;;;;;17.30;100.00;101528.34;5033569;28;20045;-74
2022/06/29 01:56:17;;;;;;;4.60;2.67;;;;;;;17.30;100.00;101528.34;5033727;28;20095;-72
2022/06/29 01:58:43;;;;;;;5.43;2.65;;;;;;;17.31;100.00;101530.13;5033262;28;20390;-72
2022/06/29 02:01:08;;;;;;;5.07;2.97;;;;;;;17.36;100.00;101525.66;5034096;28;20029;-73
2022/06/29 02:03:33;;;;;;;3.75;2.72;;;;;;;17.40;100.00;101519.47;5034106;28;20393;-73
2022/06/29 02:05:59;;;;;;;4.65;2.42;;;;;;;17.41;100.00;101510.59;5031638;28;20108;-73
2022/06/29 02:08:24;;;;;;;8.93;3.20;;;;;;;17.34;100.00;101515.03;5032403;28;20385;-73
2022/06/29 02:10:49;;;;;;;8.10;3.10;;;;;;;17.30;100.00;101507.06;5033945;28;20106;-73
2022/06/29 02:13:15;;;;;;;3.60;2.60;;;;;;;17.30;100.00;101513.25;5034143;28;20051;-72
2022/06/29 02:15:40;;;;;;;6.70;3.15;;;;;;;17.25;100.00;101503.53;5033393;28;20041;-72
2022/06/29 02:18:06;;;;;;;8.40;3.22;;;;;;;17.20;100.00;101506.19;5034349;28;20030;-72
2022/06/29 02:20:31;;;;;;;4.55;3.10;;;;;;;17.14;100.00;101500.84;5032502;28;20136;-72
2022/06/29 02:22:57;;;;;;;4.97;3.00;;;;;;;17.09;100.00;101502.63;5034124;28;20132;-72
2022/06/29 02:25:22;;;;;;;5.60;3.10;;;;;;;17.07;100.00;101505.28;5033882;28;20029;-72
2022/06/29 02:27:47;;;;;;;4.45;2.63;;;;;;;17.09;100.00;101500.88;5033190;28;20025;-72
2022/06/29 02:30:14;;;;;;;8.10;2.90;;;;;;;17.07;100.00;101499.09;5032636;28;20029;-71
2022/06/29 02:35:25;;;;;;;4.47;3.40;;;;;;;17.06;100.00;101497.31;5031700;28;20040;-72
2022/06/29 02:37:51;;;;;;;4.03;2.88;;;;;;;17.03;100.00;101492.88;5034078;28;20025;-72
2022/06/29 02:40:16;;;;;;;6.38;3.03;;;;;;;17.00;100.00;101487.56;5031905;28;20033;-73
2022/06/29 02:42:42;;;;;;;10.05;3.35;;;;;;;16.98;100.00;101489.34;5033083;28;20458;-73
2022/06/29 02:45:07;;;;;;;7.82;3.45;;;;;;;16.97;100.00;101484.88;5031432;28;20036;-71
2022/06/29 02:47:33;;;;;;;8.32;3.97;;;;;;;16.96;100.00;101491.13;5033738;28;20483;-71
2022/06/29 02:49:58;;;;;;;8.35;3.50;;;;;;;16.95;100.00;101484.03;5032434;28;20025;-71
2022/06/29 02:52:23;;;;;;;5.68;3.40;;;;;;;16.94;100.00;101477.81;5033632;28;20037;-71
2022/06/29 02:54:49;;;;;;;8.77;3.58;;;;;;;16.90;100.00;101481.38;5033099;28;20037;-71
2022/06/29 02:57:14;;;;;;;7.75;3.38;;;;;;;16.85;100.00;101478.66;5033841;28;20028;-72
2022/06/29 02:59:39;;;;;;;4.15;3.10;;;;;;;16.86;100.00;101477.78;5032095;28;20036;-72
2022/06/29 03:02:05;;;;;;;5.45;3.10;;;;;;;16.83;100.00;101468.91;5031461;28;20419;-72
2022/06/29 03:04:31;;;;;;;7.63;3.42;;;;;;;16.81;100.00;101470.69;5032134;28;20116;-72
2022/06/29 03:06:56;;;;;;;8.00;3.20;;;;;;;16.77;100.00;101475.13;5033533;28;20523;-71
2022/06/29 03:09:21;;;;;;;5.40;3.42;;;;;;;16.80;100.00;101469.78;5032479;28;20027;-72
2022/06/29 03:11:47;;;;;;;9.70;3.50;;;;;;;16.69;100.00;101464.47;5032624;28;20076;-72
2022/06/29 03:14:12;;;;;;;7.47;3.53;;;;;;;16.60;100.00;101461.78;5031617;28;20477;-73
2022/06/29 03:16:37;;;;;;;4.65;2.92;;;;;;;16.58;100.00;101465.34;5031918;28;20029;-73
2022/06/29 03:19:03;;;;;;;5.57;3.45;;;;;;;16.48;100.00;101462.69;5031226;28;20029;-73
2022/06/29 03:21:28;;;;;;;6.70;3.63;;;;;;;16.42;100.00;101452.03;5031374;28;20029;-73
2022/06/29 03:23:53;;;;;;;7.43;4.13;;;;;;;16.29;100.00;101450.22;5032006;28;20029;-73
2022/06/29 03:26:19;;;;;;;8.88;3.80;;;;;;;16.32;100.00;101450.25;5031169;28;20029;-73
2022/06/29 03:28:44;;;;;;;4.95;3.85;;;;;;;16.32;100.00;101455.56;5032497;28;20465;-71
2022/06/29 03:31:10;;;;;;;6.47;4.10;;;;;;;16.30;100.00;101458.19;5031863;28;20044;-73
2022/06/29 03:33:35;;;;;;;6.90;3.90;;;;;;;16.23;100.00;101460.84;5026641;28;20084;-72
2022/06/29 03:36:00;;;;;;;4.70;3.88;;;;;;;16.18;100.00;101452.84;5027455;28;20041;-72
2022/06/29 03:38:26;;;;;;;5.63;3.25;;;;;;;16.19;100.00;101449.31;5032807;28;20108;-72
2022/06/29 03:40:51;;;;;;;8.27;3.65;;;;;;;16.09;100.00;101448.41;5028763;28;20064;-72
2022/06/29 03:43:17;;;;;;;5.95;3.63;;;;;;;16.04;100.00;101449.28;5032788;28;20048;-73
2022/06/29 03:45:42;;;;;;;5.03;3.80;;;;;;;16.07;100.00;101442.19;5031979;28;20536;-73
2022/06/29 03:48:08;;;;;;;6.72;3.85;;;;;;;15.99;100.00;101444.84;5032925;28;20366;-73
2022/06/29 03:50:34;;;;;;;4.43;3.70;;;;;;;15.97;100.00;101445.72;5031591;28;20104;-71
2022/06/29 03:52:59;;;;;;;9.55;4.40;;;;;;;16.04;100.00;101443.97;5032627;28;20049;-71
2022/06/29 03:55:25;;;;;;;9.43;3.90;;;;;;;16.01;100.00;101450.16;5032515;28;20493;-72
2022/06/29 03:57:51;;;;;;;7.28;4.32;;;;;;;16.00;100.00;101451.91;5032579;28;20118;-72
2022/06/29 04:00:17;;;;;;;6.50;3.95;;;;;;;16.01;100.00;101444.84;5031580;28;20113;-71
2022/06/29 04:02:42;;;;;;;8.10;4.53;;;;;;;16.08;100.00;101448.41;5030522;28;20036;-72
2022/06/29 04:05:08;;;;;;;7.93;4.20;;;;;;;16.11;100.00;101446.63;5031862;28;20049;-72
2022/06/29 04:07:34;;;;;;;7.28;3.80;;;;;;;16.12;100.00;101442.22;5032580;28;20030;-72
2022/06/29 04:10:00;;;;;;;7.18;4.13;;;;;;;16.11;100.00;101441.31;5030719;28;20112;-72
2022/06/29 04:12:30;;;;;;;9.07;4.07;;;;;;;16.12;100.00;101443.09;5030170;28;20171;-73
2022/06/29 04:14:56;;;;;;;8.80;4.22;;;;;;;16.13;100.00;101444.00;5030778;28;20044;-72
2022/06/29 04:17:22;;;;;;;6.88;4.30;;;;;;;16.23;100.00;101444.91;5031792;28;20029;-73
2022/06/29 04:19:47;;;;;;;7.20;4.07;;;;;;;16.13;100.00;101444.00;5031892;28;20045;-72
2022/06/29 04:22:12;;;;;;;5.70;4.43;;;;;;;16.19;100.00;101444.88;5031983;28;20025;-73
2022/06/29 04:24:38;;;;;;;5.13;4.05;;;;;;;16.24;100.00;101436.06;5031421;28;20097;-72
2022/06/29 04:27:03;;;;;;;6.85;4.50;;;;;;;16.28;100.00;101436.06;5032103;28;20081;-72
2022/06/29 04:29:29;;;;;;;8.95;4.22;;;;;;;16.32;100.00;101445.81;5032110;28;20032;-72
2022/06/29 04:31:54;;;;;;;6.50;4.20;;;;;;;16.38;100.00;101439.63;5031666;28;20064;-73
2022/06/29 04:34:19;;;;;;;7.72;5.13;;;;;;;16.39;100.00;101438.75;5032493;28;20052;-73
2022/06/29 04:36:45;;;;;;;6.82;4.15;;;;;;;16.47;100.00;101430.81;5032004;28;20017;-72
2022/06/29 04:39:10;;;;;;;7.63;4.47;;;;;;;16.51;100.00;101437.88;5032281;28;20113;-72
2022/06/29 04:41:35;;;;;;;10.32;5.10;;;;;;;16.63;100.00;101429.03;5031496;28;20025;-72
2022/06/29 04:44:01;;;;;;;7.75;4.57;;;;;;;16.68;100.00;101433.47;5029504;28;20030;-72
2022/06/29 04:46:26;;;;;;;8.15;4.72;;;;;;;16.72;100.00;101423.72;5035928;28;20021;-72
2022/06/29 04:48:55;;;;;;;8.38;4.97;;;;;;;16.74;100.00;101416.66;5033419;28;20029;-72
2022/06/29 04:51:21;;;;;;;7.57;4.78;;;;;;;16.76;100.00;101414.84;5032378;28;20466;-72
2022/06/29 04:53:48;;;;;;;6.68;4.93;;;;;;;16.83;100.00;101411.34;5034041;28;20045;-71
2022/06/29 04:56:15;;;;;;;10.05;5.18;;;;;;;16.91;100.00;101418.44;5034026;28;20499;-72
2022/06/29 04:58:42;;;;;;;5.40;4.78;;;;;;;16.95;100.00;101409.59;5034342;28;20255;-72
2022/06/29 05:01:07;;;;;;;8.68;5.22;;;;;;;17.00;100.00;101399.84;5033567;28;20075;-73
2022/06/29 05:03:33;;;;;;;5.88;4.90;;;;;;;17.04;100.00;101398.94;5033110;28;20037;-73
2022/06/29 05:05:58;;;;;;;8.43;4.78;;;;;;;17.11;100.00;101403.34;5033377;28;20116;-72
2022/06/29 05:08:24;;;;;;;6.75;5.03;;;;;;;17.16;100.00;101398.91;5035428;28;20033;-72
2022/06/29 05:10:49;;;;;;;7.82;4.80;;;;;;;17.24;100.00;101406.91;5033484;28;20033;-72
2022/06/29 05:13:15;;;;;;;8.48;5.18;;;;;;;17.27;100.00;101404.22;5034042;28;20024;-72
2022/06/29 05:15:40;;;;;;;9.65;5.38;;;;;;;17.35;100.00;101396.22;5030425;28;20056;-72
2022/06/29 05:18:06;;;;;;;9.90;5.38;;;;;;;17.40;100.00;101397.06;5034643;28;20109;-72
2022/06/29 05:20:32;;;;;;;6.50;5.20;;;;;;;17.46;100.00;101391.75;5032005;28;20053;-72
2022/06/29 05:22:58;;;;;;;5.18;4.68;;;;;;;17.50;100.00;101393.50;5033948;28;20055;-68
2022/06/29 05:25:23;;;;;;;9.18;5.38;;;;;;;17.58;100.00;101389.94;5033578;28;20477;-72
2022/06/29 05:27:49;;;;;;;7.25;5.50;;;;;;;17.65;100.00;101391.69;5033302;28;20037;-74
2022/06/29 05:30:15;;;;;;;9.98;5.65;;;;;;;17.73;100.00;101396.97;5035101;28;20033;-73
2022/06/29 05:32:41;;;;;;;8.60;5.57;;;;;;;17.77;100.00;101386.31;5033119;28;20041;-73
2022/06/29 05:35:07;;;;;;;9.82;5.75;;;;;;;17.84;100.00;101381.84;5029625;28;20025;-73
2022/06/29 05:37:32;;;;;;;6.15;5.22;;;;;;;17.90;100.00;101381.81;5030112;28;20034;-73
2022/06/29 05:39:58;;;;;;;9.55;5.75;;;;;;;17.96;100.00;101380.91;5029392;28;20105;-73
2022/06/29 05:42:23;;;;;;;7.50;4.40;;;;;;;18.01;100.00;101385.34;5025711;28;20479;-73
2022/06/29 05:44:49;;;;;;;8.82;6.05;;;;;;;18.03;100.00;101382.66;5030253;28;20022;-73
2022/06/29 05:47:14;;;;;;;9.13;5.75;;;;;;;18.06;100.00;101382.63;5033540;28;20156;-73
2022/06/29 05:49:40;;;;;;;7.10;5.60;;;;;;;18.10;100.00;101381.72;5033297;28;20041;-73
2022/06/29 05:52:06;;;;;;;9.93;6.25;;;;;;;18.12;100.00;101373.72;5033958;28;20053;-74
2022/06/29 05:54:32;;;;;;;7.50;5.60;;;;;;;18.18;100.00;101377.22;5033449;28;20465;-73
2022/06/29 05:56:57;;;;;;;8.45;5.78;;;;;;;18.26;100.00;101370.97;5034548;28;20036;-73
2022/06/29 05:59:22;;;;;;;9.63;6.10;;;;;;;18.26;100.00;101368.28;5032901;28;20117;-73
2022/06/29 06:01:48;;;;;;;7.55;6.10;;;;;;;18.29;100.00;101371.84;5032933;28;20049;-72
2022/06/29 06:04:13;;;;;;;13.15;6.47;;;;;;;18.30;100.00;101370.03;5033619;28;20079;-73
2022/06/29 06:06:39;;;;;;;9.38;5.43;;;;;;;18.35;100.00;101374.47;5032463;28;20037;-72
2022/06/29 06:09:04;;;;;;;8.52;6.20;;;;;;;18.44;100.00;101376.16;5033780;28;20033;-72
2022/06/29 06:11:29;;;;;;;9.90;6.15;;;;;;;18.50;100.00;101378.81;5034144;28;20070;-72
2022/06/29 06:13:55;;;;;;;9.25;5.45;;;;;;;18.55;100.00;101370.75;5034559;28;20465;-73
2022/06/29 06:16:20;;;;;;;11.50;6.25;;;;;;;18.63;100.00;101365.38;5032907;28;20425;-73
2022/06/29 06:18:46;;;;;;;7.85;5.97;;;;;;;18.67;100.00;101367.97;5032686;28;20029;-74
2022/06/29 06:21:11;;;;;;;10.60;6.95;;;;;;;18.74;100.00;101365.28;5033768;28;20479;-74
2022/06/29 06:23:37;;;;;;;12.43;6.18;;;;;;;18.79;100.00;101360.78;5034065;28;20032;-73
2022/06/29 06:26:02;;;;;;;8.15;5.90;;;;;;;18.85;100.00;101374.06;5033896;28;20029;-72
2022/06/29 06:28:28;;;;;;;8.77;5.35;;;;;;;18.95;100.00;101372.19;5034176;28;20023;-74
2022/06/29 06:30:53;;;;;;;7.88;6.10;;;;;;;19.06;100.00;101374.78;5033089;28;20029;-73
2022/06/29 06:33:18;;;;;;;11.10;6.22;;;;;;;19.10;100.00;101379.16;5032942;28;20030;-73
2022/06/29 06:35:43;;;;;;;6.40;5.57;;;;;;;19.13;100.00;101381.81;5032970;28;20031;-73
2022/06/29 06:38:09;;;;;;;9.20;5.63;;;;;;;19.22;100.00;101379.03;5033936;28;20057;-73
2022/06/29 06:41:34;;;;;;;8.45;5.57;;;;;;;19.30;100.00;101376.28;5033135;28;20025;-73
2022/06/29 06:43:29;;;;;;;9.60;5.35;;;;;;;19.40;100.00;101382.41;5026861;28;20041;-72
2022/06/29 06:45:54;;;;;;;8.07;5.85;;;;;;;19.46;100.00;101377.00;5033125;28;20036;-73
2022/06/29 06:48:19;;;;;;;7.28;5.20;;;;;;;19.52;100.00;101374.25;5033959;28;20018;-73
2022/06/29 06:50:45;;;;;;;8.10;5.10;;;;;;;19.60;100.00;101376.84;5033446;28;20064;-74
2022/06/29 06:53:10;;;;;;;9.55;4.75;;;;;;;19.66;100.00;101374.09;5032344;28;20049;-73
2022/06/29 06:55:35;;;;;;;9.05;6.05;;;;;;;19.75;100.00;101359.72;5030934;28;20115;-73
2022/06/29 06:58:01;;;;;;;11.05;5.90;;;;;;;19.78;100.00;101362.34;5033372;28;20524;-74
2022/06/29 07:00:28;;;;;;;6.25;5.15;;;;;;;19.88;100.00;101370.25;5033328;28;20542;-74
2022/06/29 07:02:53;;;;;;;8.45;5.93;;;;;;;19.99;100.00;101371.91;5033753;28;20036;-73
2022/06/29 07:05:19;;;;;;;9.02;5.30;;;;;;;20.10;100.00;101369.94;5031987;28;20025;-73
2022/06/29 07:07:45;;;;;;;8.60;5.03;;;;;;;20.24;100.00;101374.22;5032449;28;20037;-73
2022/06/29 07:10:10;;;;;;;11.80;5.22;;;;;;;20.32;100.00;101373.19;5033604;28;20036;-74
2022/06/29 07:12:36;;;;;;;5.43;4.70;;;;;;;20.41;100.00;101374.84;5032190;28;20034;-73
2022/06/29 07:15:01;;;;;;;11.13;6.28;;;;;;;20.42;100.00;101370.38;5032439;28;20025;-72
2022/06/29 07:17:26;;;;;;;10.18;4.93;;;;;;;20.41;100.00;101369.50;5032212;28;20448;-73
2022/06/29 07:19:52;;;;;;;9.88;6.03;;;;;;;20.37;100.00;101365.09;5033112;28;20116;-73
2022/06/29 07:22:17;;;;;;;8.20;5.78;;;;;;;20.37;100.00;101367.78;5033289;28;20028;-74
2022/06/29 07:24:43;;;;;;;6.13;5.53;;;;;;;20.39;100.00;101365.97;5032850;28;20380;-73
2022/06/29 07:27:09;;;;;;;8.48;5.30;;;;;;;20.43;100.00;101358.75;5031907;28;20029;-72
2022/06/29 07:29:34;;;;;;;10.82;5.80;;;;;;;20.52;100.00;101362.19;5033520;28;20366;-70
2022/06/29 07:31:59;;;;;;;12.32;6.00;;;;;;;20.60;100.00;101358.50;5032773;28;20025;-74
2022/06/29 07:34:25;;;;;;;7.35;5.47;;;;;;;20.71;100.00;101361.91;5033073;28;20067;-72
2022/06/29 07:36:50;;;;;;;11.02;5.88;;;;;;;20.81;100.00;101363.50;5032001;28;20033;-72
2022/06/29 07:39:16;;;;;;;7.60;4.93;;;;;;;20.92;100.00;101354.38;5033003;28;20086;-73
2022/06/29 07:41:41;;;;;;;9.27;4.68;;;;;;;21.07;100.00;101356.81;5033049;28;20025;-73
2022/06/29 07:44:07;;;;;;;8.63;5.13;;;;;;;21.14;100.00;101358.44;5031301;28;20051;-71
2022/06/29 07:46:33;;;;;;;11.27;5.15;;;;;;;21.26;100.00;101362.69;5031547;28;20045;-73
2022/06/29 07:48:58;;;;;;;7.18;4.53;;;;;;;21.35;100.00;101354.47;5032712;28;20051;-73
2022/06/29 07:51:23;;;;;;;7.90;5.00;;;;;;;21.48;100.00;101363.13;5032573;28;20385;-73
2022/06/29 07:53:49;;;;;;;7.85;5.43;;;;;;;21.59;100.00;101356.69;5032623;28;20049;-73
2022/06/29 07:56:14;;;;;;;7.35;4.28;;;;;;;21.67;100.00;101366.31;5031371;28;20041;-72
2022/06/29 07:58:40;;;;;;;8.73;4.38;;;;;;;21.73;100.00;101362.63;5032536;28;20037;-73
2022/06/29 08:01:05;;;;;;;6.28;4.18;;;;;;;21.80;100.00;101361.59;5032887;28;20037;-73
2022/06/29 08:03:31;;;;;;;6.78;4.57;;;;;;;21.92;100.00;101375.63;5032521;28;20513;-73
2022/06/29 08:05:58;;;;;;;6.15;4.57;;;;;;;22.02;100.00;101369.16;5031665;28;20067;-73
2022/06/29 08:08:23;;;;;;;10.90;4.75;;;;;;;22.05;100.00;101361.91;5032617;28;20064;-73
2022/06/29 08:10:48;;;;;;;6.88;4.05;;;;;;;22.18;100.00;101367.00;5032536;28;20049;-72
2022/06/29 08:13:14;;;;;;;6.75;3.88;;;;;;;22.28;100.00;101356.94;5032587;28;20071;-73
2022/06/29 08:15:39;;;;;;;5.70;4.20;;;;;;;22.36;100.00;101353.16;5031655;28;20029;-72
2022/06/29 08:18:05;;;;;;;5.93;3.15;;;;;;;22.49;100.00;101361.81;5034325;28;20030;-73
2022/06/29 08:20:30;;;;;;;5.15;4.28;;;;;;;22.62;100.00;101356.13;5036223;28;20026;-73
2022/06/29 08:22:56;;;;;;;7.20;4.05;;;;;;;22.72;100.00;101354.97;5035080;28;20113;-72
2022/06/29 08:25:21;;;;;;;7.18;4.03;;;;;;;22.82;100.00;101348.44;5035160;28;20033;-73
2022/06/29 08:27:52;;;;;;;6.45;3.42;;;;;;;22.92;100.00;101351.75;5036542;28;20362;-73
2022/06/29 08:30:19;;;;;;;8.23;3.95;;;;;;;23.02;100.00;101357.75;5035917;28;20091;-72
2022/06/29 08:32:44;;;;;;;7.85;3.58;;;;;;;23.14;99.50;101352.09;5033785;28;20056;-73
2022/06/29 08:35:15;;;;;;;6.90;3.75;;;;;;;23.23;100.00;101343.75;5036673;28;20064;-73
2022/06/29 08:37:41;;;;;;;6.22;3.28;;;;;;;23.31;99.67;101345.38;5028727;28;20026;-72
2022/06/29 08:40:08;;;;;;;8.35;3.13;;;;;;;23.38;99.52;101345.13;5036502;28;20377;-73
2022/06/29 08:42:36;;;;;;;9.60;3.30;;;;;;;23.45;98.03;101343.13;5035281;28;20025;-74
2022/06/29 08:45:03;;;;;;;6.00;3.22;;;;;;;23.57;95.13;101336.53;5036459;28;20034;-73
2022/06/29 08:47:29;;;;;;;4.47;2.38;;;;;;;23.63;95.78;101338.16;5035337;28;20405;-73
2022/06/29 08:49:55;;;;;;;7.25;2.97;;;;;;;23.73;96.19;101342.34;5036015;28;20025;-74
2022/06/29 08:52:23;;;;;;;3.85;2.22;;;;;;;23.80;94.41;101343.88;5034551;28;20030;-73
2022/06/29 08:54:52;;;;;;;7.20;2.92;;;;;;;23.92;94.91;101337.28;5035965;28;20056;-71
2022/06/29 08:57:19;;;;;;;5.50;2.65;;;;;;;24.03;94.45;101339.66;5036665;28;20108;-72
2022/06/29 08:59:44;;;;;;;4.80;2.28;;;;;;;24.12;92.32;101335.75;5035969;28;20037;-69
2022/06/29 09:02:11;;;;;;;9.63;3.45;;;;;;;24.17;95.17;101334.72;5035071;28;20465;-67
2022/06/29 09:04:36;;;;;;;5.18;2.38;;;;;;;24.32;93.79;101330.66;5035294;28;20030;-68
2022/06/29 09:07:02;;;;;;;6.43;2.30;;;;;;;24.44;90.62;101328.47;5035277;28;20028;-67
2022/06/29 09:09:27;;;;;;;13.52;2.60;;;;;;;24.50;88.57;101329.13;5035288;28;20104;-69
2022/06/29 09:11:53;;;;;;;4.63;2.03;;;;;;;24.56;84.43;101331.59;5032831;28;20017;-74
2022/06/29 09:14:23;;;;;;;2.70;1.80;;;;;;;24.61;83.81;101331.47;5035483;28;20381;-73
2022/06/29 09:16:48;;;;;;;7.03;2.25;;;;;;;24.70;83.60;101330.28;5035123;28;20531;-74
2022/06/29 09:19:15;;;;;;;3.73;1.90;;;;;;;24.80;84.77;101331.72;5034712;28;20112;-74
2022/06/29 09:21:53;;;;;;;3.65;1.42;;;;;;;24.88;84.60;101340.41;5026768;28;20787;-74
2022/06/29 09:24:21;;;;;;;6.07;1.90;;;;;;;24.91;82.73;101326.81;5036094;28;20457;-74
2022/06/29 09:26:55;;;;;;;6.10;1.98;;;;;;;25.03;81.41;101338.13;5035567;28;20021;-74
2022/06/29 09:29:33;;;;;;;4.85;1.90;;;;;;;25.14;84.47;101330.50;5034899;28;20107;-73
2022/06/29 09:32:01;;;;;;;3.95;1.73;;;;;;;25.23;82.03;101331.97;5034719;28;20167;-73
2022/06/29 09:34:28;;;;;;;6.63;1.52;;;;;;;25.36;81.29;101332.44;5034888;28;20033;-74
2022/06/29 09:36:58;;;;;;;6.93;2.10;;;;;;;25.45;79.16;101334.78;5035109;28;20029;-73
2022/06/29 09:39:36;;;;;;;9.40;1.70;;;;;;;25.60;71.60;101330.63;5033252;28;20033;-73
2022/06/29 09:42:07;;;;;;;6.00;1.60;;;;;;;25.63;66.80;101324.25;5033700;28;20447;-73
2022/06/29 09:44:33;;;;;;;3.63;1.40;;;;;;;25.70;63.68;101333.84;5034454;28;20481;-73
2022/06/29 09:47:02;;;;;;;8.70;1.90;;;;;;;25.75;63.44;101326.44;5035161;28;20033;-72
2022/06/29 09:49:29;;;;;;;9.68;1.50;;;;;;;25.77;64.96;101329.09;5034973;28;20069;-72
2022/06/29 09:52:05;;;;;;;11.27;1.90;;;;;;;25.90;65.12;101333.91;5040028;28;20029;-73
2022/06/29 09:54:47;;;;;;;5.90;1.40;;;;;;;25.90;65.80;101331.22;5033213;28;20115;-72
2022/06/29 09:57:13;;;;;;;3.80;1.35;;;;;;;25.88;65.85;101326.81;5031195;28;20476;-72
2022/06/29 10:02:45;;;;;;;7.13;1.75;;;;;;;26.11;66.28;101334.00;5028192;28;20508;-72
2022/06/29 10:05:13;;;;;;;4.40;1.60;;;;;;;26.20;67.34;101325.56;5034664;28;20370;-73
2022/06/29 10:07:44;;;;;;;2.30;1.38;;;;;;;26.34;65.72;101324.97;5032592;28;20060;-72
2022/06/29 10:10:13;;;;;;;6.10;1.58;;;;;;;26.35;61.92;101315.06;5032052;28;20109;-72
2022/06/29 10:15:57;;;;;;;7.72;1.60;;;;;;;26.46;64.22;101328.13;5034797;28;20100;-72
2022/06/29 10:18:31;;;;;;;6.13;1.75;;;;;;;26.57;62.68;101315.91;5033948;28;20040;-72
2022/06/29 10:20:58;;;;;;;3.38;1.40;;;;;;;26.71;61.46;101314.44;5032705;28;20497;-72
2022/06/29 10:23:43;;;;;;;4.68;1.45;;;;;;;26.78;58.32;101313.25;5034616;28;20473;-72
2022/06/29 10:29:10;;;;;;;4.50;1.55;;;;;;;27.24;60.08;101297.66;5033915;28;20071;-73
2022/06/29 10:31:57;;;;;;;3.38;1.30;;;;;;;27.53;56.77;101294.59;5031545;28;20367;-72
2022/06/29 10:34:28;;;;;;;3.67;1.48;;;;;;;27.59;51.95;101305.09;5033887;28;20033;-73
2022/06/29 10:37:02;;;;;;;6.13;1.40;;;;;;;27.70;51.12;101301.88;5031113;28;20033;-73
2022/06/29 10:39:43;;;;;;;5.60;1.48;;;;;;;27.32;52.09;101307.22;5032606;28;20041;-73
2022/06/29 10:45:16;;;;;;;3.28;1.40;;;;;;;26.56;51.56;101295.25;5033130;28;20115;-73
2022/06/29 10:47:54;;;;;;;7.05;1.73;;;;;;;26.45;52.96;101284.03;5033499;28;20125;-73
2022/06/29 10:52:45;;;;;;;6.13;1.30;;;;;;;26.82;52.09;101293.28;5033400;28;20029;-72
2022/06/29 10:55:11;;;;;;;4.47;1.25;;;;;;;26.74;51.67;101285.50;5031745;28;20284;-73
2022/06/29 10:57:38;;;;;;;6.07;1.35;;;;;;;26.67;51.34;101284.00;5029719;28;20325;-73
2022/06/29 11:00:09;;;;;;;5.07;1.23;;;;;;;26.39;52.58;101284.31;5026243;28;20104;-73
2022/06/29 11:02:35;;;;;;;3.40;1.38;;;;;;;26.46;55.05;101291.19;5023951;28;20376;-73
2022/06/29 11:05:01;;;;;;;7.85;1.50;;;;;;;26.47;52.07;101284.88;5025328;28;20028;-72
2022/06/29 11:12:57;;;;;;;7.43;1.80;;;;;;;26.30;51.94;101295.50;5029662;28;20171;-72
2022/06/29 11:15:42;;;;;;;4.97;1.55;;;;;;;26.17;52.45;101290.63;5027590;28;20452;-69
2022/06/29 11:18:33;;;;;;;8.60;1.75;;;;;;;26.28;52.03;101278.50;5025613;28;20037;-73
2022/06/29 11:21:03;;;;;;;5.57;1.50;;;;;;;26.63;53.64;101281.47;5019761;28;20033;-73
2022/06/29 11:23:33;;;;;;;4.88;1.60;;;;;;;27.02;53.35;101283.38;5032520;28;20029;-73
2022/06/29 11:26:00;;;;;;;3.42;1.85;;;;;;;26.95;50.23;101295.41;5031670;28;20021;-72
2022/06/29 11:28:28;;;;;;;4.75;1.42;;;;;;;26.87;48.51;101285.84;5032024;28;20025;-73
2022/06/29 11:31:02;;;;;;;7.50;1.67;;;;;;;26.70;49.53;101283.00;5031978;28;20048;-73
2022/06/29 11:33:32;;;;;;;5.05;1.70;;;;;;;26.49;51.30;101284.78;5031209;28;20436;-73
2022/06/29 11:36:04;;;;;;;5.53;1.52;;;;;;;26.61;51.20;101296.88;5025995;28;20071;-72
2022/06/29 11:38:30;;;;;;;4.67;1.47;;;;;;;26.36;51.13;101284.47;5032444;28;20037;-72
2022/06/29 11:40:55;;;;;;;3.95;1.60;;;;;;;26.22;49.04;101283.22;5032691;28;20033;-73